Quesnel Airport
CYQZ : now visible

Airfield :











YOU CAN JOIN US ON...

 
LOGIN :

Register | Disclaimer

   EN    FR    IT 

 









Legend :    VFR   Marginal VFR   IFR   Intensive IFR   Very Intensive IFR
Visi :
Ceiling :
>= 8 km
>= 3000ft
5 to 8 km
1000 to 3000 ft
1500m to 5 km
500 to 1000 ft
800 to 1500m
200 to 500 ft
< 800m
< 200 ft
Symbols :   Thunderstorms  Fog  Heavy snow  Heavy precipitations  Wind > 20 kt






- Airport Elevation : 1789 ft
- IATA code : YQZ


CYQZ - Quesnel

CURRENT METAR :
  • 130000Z AUTO 12006KT 9SM OVC017 05/03 A2996 RMK SLP170

EXPIRED METARs :
  • 122300Z AUTO 14009KT 9SM OVC019 05/02 A2995 RMK SLP165
  • 122200Z AUTO 14010KT 9SM OVC017 04/02 A2993 RMK SLP161

TAF TAF CYQZ
Valid from the 12 at 19:00 until the 13 at 06:00 UTC


121852Z 1219/1306 17007KT P6SM FEW015 BKN060 OVC080
TEMPO 1219/1306 3SM -RASN BR BKN015 OVC060 RMK FCST BASED ON AUTO OBS. NXT FCST BY 130100Z



MET'MAP, your aeronautical weather chart ! - Copyright ORBIFLY December 2007 - Disclaimer

ORBIFLY MET'MAP TEAM :

Programming & Development : Alexandra Zaïnal
Concept & Development : Baudouin d'Aumeries
Co-Development & Prog : Marc-Olivier Méhu
Technical & hardware support : Manuel Goepfert

Contact : metmap@orbifly.com




SOURCES & CREDITS :

   NOAA       Earth
Advisory